Time;durP1;ratioP1;P1;durP2;ratioP2;P2;SDS_P1;SDS_P2;PMS_P1;PMS_P2;Temp;Humidity;BMP_temperature;BMP_pressure;BME280_temperature;BME280_humidity;BME280_pressure;Samples;Min_cycle;Max_cycle;Signal;HPM_P1;HPM_P2
2023/04/21 00:01:07;;;;;;;19.67;13.23;;;11.50;67.80;;;;;;5033243;28;20114;-69
2023/04/21 00:03:37;;;;;;;19.67;13.57;;;11.50;68.10;;;;;;5040982;28;20032;-70
2023/04/21 00:06:05;;;;;;;23.95;14.25;;;11.50;68.40;;;;;;5034204;28;20102;-69
2023/04/21 00:08:31;;;;;;;23.42;13.73;;;11.50;68.60;;;;;;5034316;28;20025;-69
2023/04/21 00:10:57;;;;;;;20.05;13.75;;;11.50;68.80;;;;;;5034247;28;20099;-69
2023/04/21 00:13:23;;;;;;;22.25;14.73;;;11.50;69.00;;;;;;5042284;28;20116;-69
2023/04/21 00:15:49;;;;;;;21.77;14.50;;;11.50;69.20;;;;;;5050789;28;20124;-69
2023/04/21 00:18:16;;;;;;;21.70;14.95;;;11.50;69.30;;;;;;5021995;28;20045;-69
2023/04/21 00:20:42;;;;;;;19.48;14.50;;;11.50;69.50;;;;;;5032214;28;20025;-69
2023/04/21 00:23:09;;;;;;;21.10;15.30;;;11.50;69.70;;;;;;5015171;28;20450;-69
2023/04/21 00:25:36;;;;;;;22.02;15.13;;;11.40;69.80;;;;;;5029432;28;20029;-70
2023/04/21 00:28:02;;;;;;;22.50;15.85;;;11.40;70.00;;;;;;5015711;28;20041;-70
2023/04/21 00:30:28;;;;;;;23.65;14.30;;;11.40;70.10;;;;;;5033569;28;20454;-68
2023/04/21 00:32:54;;;;;;;24.75;15.23;;;11.40;70.20;;;;;;5039841;28;20026;-68
2023/04/21 00:35:21;;;;;;;24.13;15.32;;;11.40;70.40;;;;;;5038432;28;20296;-69
2023/04/21 00:37:49;;;;;;;24.65;15.23;;;11.40;70.60;;;;;;5053251;28;20039;-68
2023/04/21 00:40:14;;;;;;;21.35;14.88;;;11.40;70.70;;;;;;5041803;28;20060;-68
2023/04/21 00:42:40;;;;;;;22.73;14.82;;;11.40;70.80;;;;;;5048644;28;20029;-68
2023/04/21 00:45:07;;;;;;;21.00;14.52;;;11.40;71.00;;;;;;5034989;28;20060;-70
2023/04/21 00:47:34;;;;;;;22.00;14.10;;;11.40;71.10;;;;;;5049322;28;20404;-67
2023/04/21 00:50:01;;;;;;;22.05;14.25;;;11.30;71.20;;;;;;5046203;28;20032;-68
2023/04/21 00:52:27;;;;;;;19.45;13.60;;;11.30;71.40;;;;;;5048429;28;20052;-68
2023/04/21 00:54:54;;;;;;;19.63;12.90;;;11.30;71.50;;;;;;5036626;28;20045;-68
2023/04/21 00:57:20;;;;;;;19.50;12.68;;;11.30;71.70;;;;;;5045655;28;20408;-68
2023/04/21 00:59:46;;;;;;;19.00;12.48;;;11.40;71.90;;;;;;5050566;28;20033;-68
2023/04/21 01:02:17;;;;;;;20.33;12.98;;;11.30;71.90;;;;;;5043578;28;20041;-68
2023/04/21 01:04:44;;;;;;;18.25;12.25;;;11.30;72.10;;;;;;5040069;28;20396;-68
2023/04/21 01:07:11;;;;;;;20.02;13.40;;;11.30;72.10;;;;;;5035359;28;20049;-68
2023/04/21 01:09:37;;;;;;;21.50;14.32;;;11.30;72.20;;;;;;5026418;28;20426;-68
2023/04/21 01:12:08;;;;;;;18.38;12.95;;;11.30;72.30;;;;;;5043222;28;20017;-68
2023/04/21 01:14:36;;;;;;;20.02;13.18;;;11.30;72.50;;;;;;5029818;28;20017;-68
2023/04/21 01:17:04;;;;;;;20.88;13.48;;;11.30;72.50;;;;;;5040021;28;20056;-68
2023/04/21 01:19:35;;;;;;;21.73;14.00;;;11.30;72.60;;;;;;5056374;28;20033;-68
2023/04/21 01:22:02;;;;;;;19.88;13.05;;;11.30;72.70;;;;;;5037032;28;20048;-70
2023/04/21 01:24:46;;;;;;;19.67;14.02;;;11.30;72.80;;;;;;5025329;28;20021;-70
2023/04/21 01:27:19;;;;;;;22.05;14.73;;;11.30;72.90;;;;;;5036705;28;20125;-70
2023/04/21 01:29:48;;;;;;;22.10;14.48;;;11.30;73.00;;;;;;5056113;28;20095;-68
2023/04/21 01:32:26;;;;;;;21.50;15.10;;;11.30;72.90;;;;;;5039596;28;20075;-68
2023/04/21 01:34:52;;;;;;;22.15;15.05;;;11.30;73.10;;;;;;5021101;28;20022;-67
2023/04/21 01:37:21;;;;;;;20.17;14.30;;;11.30;73.10;;;;;;5032925;28;20022;-68
2023/04/21 01:39:51;;;;;;;22.90;14.55;;;11.30;73.20;;;;;;5039675;28;20024;-67
2023/04/21 01:42:17;;;;;;;22.67;15.27;;;11.30;73.30;;;;;;5019874;28;20473;-67
2023/04/21 01:44:43;;;;;;;22.67;15.75;;;11.30;73.40;;;;;;5053535;28;20392;-68
2023/04/21 01:47:10;;;;;;;23.83;15.52;;;11.30;73.50;;;;;;5040944;28;20079;-68
2023/04/21 01:49:35;;;;;;;22.95;15.07;;;11.30;73.50;;;;;;5036820;28;20463;-68
2023/04/21 01:52:01;;;;;;;24.23;16.05;;;11.30;73.60;;;;;;5041710;28;20030;-68
2023/04/21 01:54:27;;;;;;;24.42;15.93;;;11.20;73.60;;;;;;5047871;28;20067;-68
2023/04/21 01:56:53;;;;;;;23.38;16.00;;;11.30;73.90;;;;;;5040960;28;20116;-68
2023/04/21 01:59:19;;;;;;;22.58;15.13;;;11.30;73.90;;;;;;5047192;28;20032;-68
2023/04/21 02:01:45;;;;;;;23.45;16.42;;;11.30;74.00;;;;;;5046106;28;20025;-70
2023/04/21 02:04:11;;;;;;;22.10;15.55;;;11.30;74.10;;;;;;5048234;28;20024;-70
2023/04/21 02:06:37;;;;;;;24.38;15.65;;;11.30;74.10;;;;;;5039582;28;20123;-70
2023/04/21 02:09:05;;;;;;;24.25;16.92;;;11.30;74.20;;;;;;5043908;28;20040;-70
2023/04/21 02:11:31;;;;;;;23.08;15.98;;;11.30;74.30;;;;;;5021103;28;20040;-69
2023/04/21 02:13:57;;;;;;;23.95;16.98;;;11.30;74.30;;;;;;5042616;28;20472;-70
2023/04/21 02:16:25;;;;;;;23.02;16.35;;;11.30;74.40;;;;;;5044332;28;20037;-70
2023/04/21 02:18:52;;;;;;;24.20;17.80;;;11.30;74.40;;;;;;5029173;28;20052;-70
2023/04/21 02:21:20;;;;;;;24.63;16.52;;;11.30;74.60;;;;;;5031204;28;20040;-69
2023/04/21 02:23:47;;;;;;;23.33;17.08;;;11.30;74.60;;;;;;5026418;28;20021;-68
2023/04/21 02:26:13;;;;;;;23.20;16.85;;;11.30;74.70;;;;;;5044285;28;20124;-70
2023/04/21 02:28:39;;;;;;;23.45;17.02;;;11.30;74.70;;;;;;5015671;28;20029;-68
2023/04/21 02:31:06;;;;;;;22.13;15.88;;;11.30;74.80;;;;;;5047860;28;20029;-69
2023/04/21 02:33:34;;;;;;;21.88;16.00;;;11.30;74.80;;;;;;5033373;28;20021;-67
2023/04/21 02:36:00;;;;;;;20.20;15.13;;;11.20;74.80;;;;;;5037073;28;20112;-68
2023/04/21 02:38:25;;;;;;;22.88;15.40;;;11.30;74.90;;;;;;5020881;28;20194;-67
2023/04/21 02:40:51;;;;;;;21.70;16.02;;;11.30;75.00;;;;;;5047377;28;20039;-70
2023/04/21 02:43:18;;;;;;;24.10;17.42;;;11.30;75.00;;;;;;5024642;28;20037;-68
2023/04/21 02:45:44;;;;;;;24.65;16.40;;;11.20;75.00;;;;;;5043669;28;20103;-68
2023/04/21 02:48:11;;;;;;;22.25;15.48;;;11.20;75.10;;;;;;5040957;28;20017;-68
2023/04/21 02:50:37;;;;;;;24.23;17.75;;;11.20;75.10;;;;;;5054657;28;20025;-68
2023/04/21 02:53:03;;;;;;;23.55;16.75;;;11.30;76.00;;;;;;5020896;28;20147;-68
2023/04/21 02:55:28;;;;;;;22.42;15.90;;;11.30;75.30;;;;;;5041743;28;20174;-68
2023/04/21 02:57:55;;;;;;;21.27;15.75;;;11.30;75.30;;;;;;5040484;28;20036;-68
2023/04/21 03:00:22;;;;;;;23.15;16.38;;;11.30;75.30;;;;;;5040827;28;20029;-68
2023/04/21 03:02:48;;;;;;;23.88;16.85;;;11.30;75.40;;;;;;5029656;28;20025;-68
2023/04/21 03:05:16;;;;;;;23.45;16.15;;;11.20;75.40;;;;;;5043101;28;20104;-68
2023/04/21 03:07:44;;;;;;;23.23;16.60;;;11.20;75.40;;;;;;5043736;28;21292;-68
2023/04/21 03:10:10;;;;;;;26.27;16.90;;;11.20;75.50;;;;;;5032639;28;20097;-68
2023/04/21 03:12:36;;;;;;;22.42;16.38;;;11.20;75.50;;;;;;5027947;28;20489;-68
2023/04/21 03:15:03;;;;;;;21.52;16.10;;;11.20;75.60;;;;;;5040648;28;20033;-68
2023/04/21 03:17:29;;;;;;;23.98;16.55;;;11.20;75.60;;;;;;5043294;28;20025;-68
2023/04/21 03:19:55;;;;;;;24.15;17.08;;;11.30;75.70;;;;;;5046143;28;20366;-68
2023/04/21 03:22:20;;;;;;;24.98;17.50;;;11.20;75.60;;;;;;5031458;28;20037;-68
2023/04/21 03:24:46;;;;;;;24.33;16.20;;;11.20;75.70;;;;;;5036200;28;20075;-68
2023/04/21 03:27:12;;;;;;;24.25;17.45;;;11.20;75.70;;;;;;5045585;28;20021;-68
2023/04/21 03:29:38;;;;;;;21.63;16.27;;;11.20;75.80;;;;;;5042154;28;20052;-68
2023/04/21 03:32:04;;;;;;;23.30;16.73;;;11.20;75.80;;;;;;5052744;28;20033;-68
2023/04/21 03:34:30;;;;;;;22.65;16.50;;;11.30;75.90;;;;;;5037616;28;20072;-68
2023/04/21 03:36:57;;;;;;;23.10;16.15;;;11.20;75.90;;;;;;5044039;28;20029;-68
2023/04/21 03:39:23;;;;;;;24.90;17.38;;;11.30;76.00;;;;;;5037503;28;20488;-68
2023/04/21 03:41:50;;;;;;;22.27;16.08;;;11.20;75.90;;;;;;5036515;28;20033;-68
2023/04/21 03:44:16;;;;;;;23.00;17.10;;;11.20;76.00;;;;;;5041716;28;20077;-68
2023/04/21 03:46:42;;;;;;;23.50;17.33;;;11.20;76.00;;;;;;5044131;28;20052;-68
2023/04/21 03:49:08;;;;;;;25.58;17.90;;;11.20;76.00;;;;;;5042604;28;20462;-68
2023/04/21 03:51:34;;;;;;;26.30;19.25;;;11.30;76.10;;;;;;5053552;28;20029;-68
2023/04/21 03:53:59;;;;;;;23.27;17.48;;;11.30;76.10;;;;;;5033882;28;20021;-68
2023/04/21 03:56:25;;;;;;;23.98;17.83;;;11.20;76.00;;;;;;5045761;28;20045;-68
2023/04/21 03:58:52;;;;;;;27.20;19.35;;;11.30;76.10;;;;;;5042000;28;20041;-68
2023/04/21 04:01:17;;;;;;;25.98;19.13;;;11.30;76.10;;;;;;5049663;28;20037;-68
2023/04/21 04:03:43;;;;;;;27.27;19.98;;;11.20;76.10;;;;;;5047156;28;20028;-68
2023/04/21 04:06:09;;;;;;;25.25;18.45;;;11.20;76.10;;;;;;5050761;28;20373;-68
2023/04/21 04:08:35;;;;;;;27.98;19.33;;;11.20;76.20;;;;;;5038126;28;20361;-68
2023/04/21 04:11:00;;;;;;;28.27;19.92;;;11.30;76.30;;;;;;5054699;28;20044;-68
2023/04/21 04:13:27;;;;;;;25.98;19.08;;;11.20;76.30;;;;;;5052217;28;20025;-68
2023/04/21 04:15:53;;;;;;;30.55;20.73;;;11.30;76.30;;;;;;5055657;28;20136;-68
2023/04/21 04:18:19;;;;;;;26.10;18.65;;;11.30;76.30;;;;;;5044358;28;20120;-68
2023/04/21 04:20:45;;;;;;;27.90;20.52;;;11.20;76.30;;;;;;5047541;28;20329;-69
2023/04/21 04:23:11;;;;;;;29.65;20.27;;;11.30;76.40;;;;;;5053069;28;20030;-68
2023/04/21 04:25:38;;;;;;;29.17;21.02;;;11.30;76.30;;;;;;5041776;28;20195;-68
2023/04/21 04:28:04;;;;;;;26.80;19.83;;;11.30;76.30;;;;;;5046696;28;20096;-69
2023/04/21 04:30:32;;;;;;;30.63;21.80;;;11.30;76.40;;;;;;5042883;28;20485;-68
2023/04/21 04:32:57;;;;;;;25.80;19.85;;;11.20;76.40;;;;;;5057007;28;20025;-68
2023/04/21 04:35:23;;;;;;;27.88;19.65;;;11.20;76.50;;;;;;5035479;28;20115;-68
2023/04/21 04:37:49;;;;;;;29.38;21.25;;;11.20;76.50;;;;;;5049480;28;20026;-68
2023/04/21 04:40:15;;;;;;;26.13;20.90;;;11.20;76.50;;;;;;5044781;28;20025;-68
2023/04/21 04:42:44;;;;;;;27.05;19.35;;;11.20;76.50;;;;;;5056875;28;20094;-68
2023/04/21 04:45:10;;;;;;;30.38;22.27;;;11.30;76.60;;;;;;5037146;28;20030;-68
2023/04/21 04:47:36;;;;;;;29.15;21.42;;;11.20;76.60;;;;;;5041309;28;20043;-68
2023/04/21 04:50:02;;;;;;;27.70;20.58;;;11.20;76.60;;;;;;5022014;28;20358;-68
2023/04/21 04:52:28;;;;;;;28.88;22.02;;;11.30;76.70;;;;;;5053688;28;20417;-68
2023/04/21 04:54:54;;;;;;;29.05;21.25;;;11.30;76.70;;;;;;5041031;28;20104;-68
2023/04/21 04:57:20;;;;;;;29.20;21.05;;;11.30;76.70;;;;;;5039317;28;20086;-68
2023/04/21 04:59:45;;;;;;;29.70;20.83;;;11.30;76.70;;;;;;5021501;28;20061;-69
2023/04/21 05:02:11;;;;;;;31.27;22.45;;;11.30;76.70;;;;;;5049539;28;20037;-68
2023/04/21 05:04:38;;;;;;;29.77;20.75;;;11.30;76.70;;;;;;5046117;28;20026;-68
2023/04/21 05:07:05;;;;;;;29.50;21.70;;;11.30;76.70;;;;;;5040158;28;20122;-70
2023/04/21 05:09:30;;;;;;;30.92;22.30;;;11.40;76.90;;;;;;5043971;28;20039;-68
2023/04/21 05:11:56;;;;;;;28.77;21.23;;;11.30;76.80;;;;;;5028068;28;20017;-68
2023/04/21 05:14:22;;;;;;;28.50;19.70;;;11.40;76.90;;;;;;5049542;28;20332;-68
2023/04/21 05:16:48;;;;;;;29.27;20.42;;;11.30;76.90;;;;;;5037509;28;20037;-69
2023/04/21 05:19:13;;;;;;;25.98;19.50;;;11.40;76.90;;;;;;5032153;28;20061;-68
2023/04/21 05:21:39;;;;;;;28.80;20.80;;;11.40;76.90;;;;;;5033779;28;20026;-68
2023/04/21 05:24:05;;;;;;;27.70;21.00;;;11.40;76.90;;;;;;5043117;28;20132;-68
2023/04/21 05:26:31;;;;;;;27.13;20.90;;;11.40;76.90;;;;;;5050180;28;20122;-68
2023/04/21 05:28:57;;;;;;;24.83;19.55;;;11.40;76.90;;;;;;5035172;28;20022;-68
2023/04/21 05:31:24;;;;;;;28.27;20.63;;;11.40;77.00;;;;;;5034118;28;20037;-69
2023/04/21 05:33:50;;;;;;;28.13;20.55;;;11.40;77.00;;;;;;5035269;28;20034;-68
2023/04/21 05:36:16;;;;;;;29.02;21.35;;;11.40;77.00;;;;;;5035272;28;20039;-69
2023/04/21 05:38:42;;;;;;;26.60;18.95;;;11.40;77.10;;;;;;5034607;28;20025;-68
2023/04/21 05:41:07;;;;;;;27.25;19.77;;;11.40;77.00;;;;;;5030979;28;20112;-68
2023/04/21 05:43:34;;;;;;;28.85;20.83;;;11.40;77.00;;;;;;5033975;28;20033;-67
2023/04/21 05:46:00;;;;;;;27.13;20.05;;;11.40;77.10;;;;;;5031822;28;20025;-68
2023/04/21 05:48:27;;;;;;;27.05;19.90;;;11.40;77.20;;;;;;5033706;28;20100;-67
2023/04/21 05:50:54;;;;;;;27.38;19.63;;;11.40;77.20;;;;;;5032399;28;20022;-69
2023/04/21 05:53:20;;;;;;;26.73;19.08;;;11.40;77.20;;;;;;5034503;28;20100;-70
2023/04/21 05:55:47;;;;;;;26.63;20.00;;;11.40;77.30;;;;;;5048724;28;20065;-70
2023/04/21 05:58:12;;;;;;;26.23;19.70;;;11.40;77.40;;;;;;5055912;28;20024;-70
2023/04/21 06:00:38;;;;;;;23.90;17.55;;;11.50;77.50;;;;;;5031694;28;20048;-70
2023/04/21 06:03:04;;;;;;;23.77;18.02;;;11.50;77.50;;;;;;5036346;28;20053;-69
2023/04/21 06:05:30;;;;;;;25.52;18.88;;;11.50;77.40;;;;;;5042527;28;20029;-70
2023/04/21 06:07:55;;;;;;;26.92;19.38;;;11.50;77.30;;;;;;5040732;28;20120;-70
2023/04/21 06:10:21;;;;;;;25.42;19.30;;;11.60;77.40;;;;;;5046271;28;20033;-70
2023/04/21 06:12:47;;;;;;;27.85;20.63;;;11.60;77.50;;;;;;5035321;28;20452;-70
2023/04/21 06:15:13;;;;;;;27.08;19.05;;;11.60;77.50;;;;;;5052971;28;20043;-69
2023/04/21 06:17:39;;;;;;;25.48;19.08;;;11.60;77.50;;;;;;5043625;28;20024;-70
2023/04/21 06:20:06;;;;;;;25.85;18.45;;;11.60;77.50;;;;;;5033273;28;20463;-69
2023/04/21 06:22:32;;;;;;;25.80;19.77;;;11.60;77.50;;;;;;5031389;28;20347;-69
2023/04/21 06:24:59;;;;;;;24.98;18.38;;;11.70;77.60;;;;;;5032929;28;20029;-70
2023/04/21 06:27:25;;;;;;;28.33;18.77;;;11.70;77.60;;;;;;5041504;28;20112;-70
2023/04/21 06:29:55;;;;;;;25.48;18.73;;;11.70;77.50;;;;;;5053035;28;20099;-70
2023/04/21 06:32:20;;;;;;;27.77;19.48;;;11.80;77.50;;;;;;5021693;28;20503;-70
2023/04/21 06:34:46;;;;;;;25.40;18.70;;;11.80;77.50;;;;;;5045525;28;20036;-69
2023/04/21 06:37:12;;;;;;;23.33;18.17;;;11.90;77.40;;;;;;5033587;28;20087;-69
2023/04/21 06:39:37;;;;;;;26.38;18.75;;;12.00;77.30;;;;;;5040860;28;20438;-68
2023/04/21 06:42:03;;;;;;;27.80;19.35;;;12.20;77.10;;;;;;5041552;28;20093;-68
2023/04/21 06:44:31;;;;;;;25.67;19.25;;;12.40;77.00;;;;;;5018702;28;20120;-68
2023/04/21 06:46:59;;;;;;;25.05;19.23;;;12.80;76.50;;;;;;5039790;28;20037;-68
2023/04/21 06:49:25;;;;;;;22.38;18.48;;;13.20;75.80;;;;;;5040822;28;20039;-69
2023/04/21 06:51:51;;;;;;;25.02;17.80;;;13.50;75.10;;;;;;5031603;28;20439;-69
2023/04/21 06:54:18;;;;;;;23.55;18.63;;;13.80;75.20;;;;;;5031077;28;20033;-69
2023/04/21 06:56:44;;;;;;;25.63;18.08;;;14.00;74.10;;;;;;5015518;28;20029;-69
2023/04/21 06:59:09;;;;;;;24.75;18.63;;;14.10;73.70;;;;;;5031500;28;20083;-69
2023/04/21 07:01:35;;;;;;;24.90;18.30;;;14.10;73.40;;;;;;5034017;28;20465;-70
2023/04/21 07:04:04;;;;;;;26.77;19.13;;;14.10;73.40;;;;;;5033715;28;20041;-69
2023/04/21 07:06:31;;;;;;;25.23;19.73;;;14.00;73.50;;;;;;5042189;28;20040;-69
2023/04/21 07:08:56;;;;;;;24.25;19.10;;;13.80;73.60;;;;;;5054189;28;20024;-69
2023/04/21 07:11:22;;;;;;;26.00;18.08;;;13.70;73.80;;;;;;5038514;28;20109;-69
2023/04/21 07:13:48;;;;;;;24.63;18.15;;;13.60;74.00;;;;;;5046011;28;20510;-69
2023/04/21 07:16:14;;;;;;;25.67;17.52;;;13.60;74.20;;;;;;5010037;28;20034;-70
2023/04/21 07:18:40;;;;;;;25.35;18.65;;;13.50;74.30;;;;;;5047697;28;20079;-68
2023/04/21 07:21:06;;;;;;;24.92;17.95;;;13.40;74.40;;;;;;5036197;28;20033;-70
2023/04/21 07:23:32;;;;;;;23.98;18.38;;;13.40;74.40;;;;;;5050222;28;20021;-71
2023/04/21 07:25:58;;;;;;;26.25;18.63;;;13.30;74.50;;;;;;5036314;28;20089;-70
2023/04/21 07:28:25;;;;;;;24.05;18.13;;;13.30;74.60;;;;;;5048025;28;20365;-70
2023/04/21 07:30:51;;;;;;;27.13;19.60;;;13.20;74.60;;;;;;5038804;28;20026;-70
2023/04/21 07:33:16;;;;;;;26.92;19.20;;;13.20;74.80;;;;;;5046338;28;20031;-70
2023/04/21 07:35:42;;;;;;;28.33;19.88;;;13.20;74.80;;;;;;5043504;28;20080;-70
2023/04/21 07:38:08;;;;;;;26.45;19.90;;;13.30;74.80;;;;;;5026607;28;20040;-70
2023/04/21 07:40:34;;;;;;;24.88;19.35;;;13.30;74.80;;;;;;5040984;28;20030;-70
2023/04/21 07:43:00;;;;;;;25.90;19.55;;;13.40;74.70;;;;;;5038892;28;20112;-71
2023/04/21 07:45:25;;;;;;;25.48;18.85;;;13.40;74.70;;;;;;5033066;28;20029;-70
2023/04/21 07:47:51;;;;;;;26.38;19.50;;;13.40;74.60;;;;;;5032059;28;20358;-69
2023/04/21 07:50:17;;;;;;;24.40;19.20;;;13.40;74.60;;;;;;5041006;28;20142;-71
2023/04/21 07:52:43;;;;;;;25.77;19.83;;;13.40;74.60;;;;;;5035764;28;20462;-69
2023/04/21 07:55:08;;;;;;;26.92;19.10;;;13.40;74.60;;;;;;5045603;28;20032;-69
2023/04/21 07:57:37;;;;;;;25.50;19.38;;;13.40;74.60;;;;;;5034675;28;20053;-68
2023/04/21 08:00:05;;;;;;;27.30;19.60;;;13.50;74.70;;;;;;5033555;28;20037;-68
2023/04/21 08:02:38;;;;;;;26.52;19.13;;;13.50;74.50;;;;;;5032570;28;20112;-69
2023/04/21 08:05:04;;;;;;;26.00;19.92;;;13.50;74.40;;;;;;5033870;28;20121;-69
2023/04/21 08:07:30;;;;;;;27.10;20.33;;;13.60;74.50;;;;;;5032236;28;20026;-69
2023/04/21 08:09:56;;;;;;;26.70;19.88;;;13.60;74.50;;;;;;5034625;28;20072;-69
2023/04/21 08:12:22;;;;;;;27.02;18.45;;;13.60;74.40;;;;;;5029896;28;20061;-69
2023/04/21 08:14:47;;;;;;;26.60;19.90;;;13.60;74.40;;;;;;5029580;28;20025;-69
2023/04/21 08:17:13;;;;;;;25.75;19.45;;;13.60;74.40;;;;;;5026547;28;20037;-70
2023/04/21 08:19:39;;;;;;;26.77;19.33;;;13.60;74.30;;;;;;5030918;28;20048;-69
2023/04/21 08:22:05;;;;;;;25.60;19.75;;;13.70;74.30;;;;;;5037935;28;20417;-69
2023/04/21 08:24:30;;;;;;;28.40;20.15;;;13.70;74.10;;;;;;5042751;28;20037;-69
2023/04/21 08:26:56;;;;;;;26.55;19.98;;;13.80;74.10;;;;;;5027040;28;20025;-68
2023/04/21 08:29:22;;;;;;;27.48;19.88;;;13.90;74.00;;;;;;5029457;28;20124;-68
2023/04/21 08:31:48;;;;;;;29.52;20.38;;;14.00;73.80;;;;;;5032822;28;20220;-69
2023/04/21 08:34:14;;;;;;;27.77;19.65;;;14.00;73.70;;;;;;5037365;28;20112;-70
2023/04/21 08:36:41;;;;;;;26.02;19.25;;;14.10;73.60;;;;;;5039241;28;20036;-70
2023/04/21 08:39:07;;;;;;;25.73;19.73;;;14.10;73.50;;;;;;5036034;28;20037;-70
2023/04/21 08:41:33;;;;;;;27.02;19.85;;;14.10;73.50;;;;;;5045678;28;20700;-70
2023/04/21 08:43:59;;;;;;;26.77;20.55;;;14.10;73.40;;;;;;5029139;28;20091;-70
2023/04/21 08:46:26;;;;;;;28.85;21.27;;;14.20;73.30;;;;;;5027783;28;20032;-70
2023/04/21 08:48:52;;;;;;;29.38;20.67;;;14.20;73.10;;;;;;5026632;28;20079;-70
2023/04/21 08:51:22;;;;;;;26.33;19.52;;;14.30;73.00;;;;;;5051187;28;20017;-70
2023/04/21 08:53:49;;;;;;;25.08;19.40;;;14.50;72.90;;;;;;5055175;28;20141;-70
2023/04/21 08:56:15;;;;;;;25.83;19.20;;;14.60;72.60;;;;;;5056836;28;20025;-70
2023/04/21 08:58:41;;;;;;;25.75;19.30;;;14.60;72.40;;;;;;5051582;28;20048;-70
2023/04/21 09:01:06;;;;;;;26.75;20.00;;;14.70;72.40;;;;;;5045077;28;20083;-71
2023/04/21 09:03:32;;;;;;;27.75;19.92;;;14.70;72.30;;;;;;5028446;28;20029;-70
2023/04/21 09:06:00;;;;;;;28.52;19.40;;;14.80;72.10;;;;;;5057192;28;20041;-69
2023/04/21 09:08:28;;;;;;;28.35;20.15;;;14.80;72.00;;;;;;5047239;28;20022;-69
2023/04/21 09:10:54;;;;;;;26.15;19.63;;;14.70;72.00;;;;;;5046798;28;20363;-69
2023/04/21 09:13:27;;;;;;;25.20;20.13;;;14.90;71.90;;;;;;5055858;28;20021;-69
2023/04/21 09:15:53;;;;;;;27.23;20.05;;;14.90;71.70;;;;;;5057009;28;20371;-69
2023/04/21 09:18:21;;;;;;;26.67;20.30;;;14.90;71.60;;;;;;5056602;28;20083;-69
2023/04/21 09:21:04;;;;;;;23.90;19.02;;;14.90;71.70;;;;;;5042015;28;20109;-69
2023/04/21 09:23:30;;;;;;;26.67;19.35;;;14.80;71.80;;;;;;5037312;28;20112;-69
2023/04/21 09:25:56;;;;;;;25.52;20.98;;;14.80;71.90;;;;;;5033658;28;20052;-69
2023/04/21 09:28:22;;;;;;;26.58;21.10;;;14.70;71.80;;;;;;5029652;28;20483;-69
2023/04/21 09:30:54;;;;;;;26.63;20.17;;;14.60;71.90;;;;;;5044731;28;20017;-69
2023/04/21 09:33:20;;;;;;;26.35;19.70;;;14.60;71.90;;;;;;5050969;28;20029;-70
2023/04/21 09:35:46;;;;;;;26.65;19.15;;;14.60;72.00;;;;;;5044314;28;20039;-71
2023/04/21 09:38:14;;;;;;;25.30;18.83;;;14.60;72.00;;;;;;5043399;28;20044;-70
2023/04/21 09:40:40;;;;;;;27.52;19.00;;;14.60;71.90;;;;;;5038791;28;20040;-71
2023/04/21 09:43:06;;;;;;;24.90;18.65;;;14.60;71.90;;;;;;5042150;28;20365;-70
2023/04/21 09:45:33;;;;;;;23.70;19.00;;;14.60;71.80;;;;;;5040015;28;20512;-70
2023/04/21 09:48:03;;;;;;;26.13;19.50;;;14.60;71.80;;;;;;5040724;28;20025;-69
2023/04/21 09:50:29;;;;;;;26.15;19.88;;;14.60;71.90;;;;;;5043634;28;20033;-69
2023/04/21 09:52:56;;;;;;;25.13;19.15;;;14.60;72.60;;;;;;5033832;28;20096;-68
2023/04/21 09:55:28;;;;;;;25.52;19.40;;;14.70;72.00;;;;;;5047957;28;20026;-68
2023/04/21 09:58:01;;;;;;;24.85;18.08;;;14.80;71.80;;;;;;5037106;28;20091;-68
2023/04/21 10:00:29;;;;;;;22.92;18.52;;;14.90;71.40;;;;;;5055643;28;20045;-69
2023/04/21 10:02:59;;;;;;;24.88;18.45;;;14.90;71.10;;;;;;5036309;28;20030;-69
2023/04/21 10:05:25;;;;;;;23.80;18.65;;;14.90;71.10;;;;;;5045101;28;20119;-67
2023/04/21 10:07:51;;;;;;;22.95;19.10;;;14.90;71.00;;;;;;5035789;28;20496;-67
2023/04/21 10:10:27;;;;;;;26.05;19.17;;;15.10;70.90;;;;;;5036083;28;20125;-67
2023/04/21 10:12:54;;;;;;;25.52;19.60;;;15.20;70.60;;;;;;5015399;28;20483;-68
2023/04/21 10:15:59;;;;;;;25.08;19.02;;;15.30;70.20;;;;;;5042426;28;20458;-67
2023/04/21 10:18:28;;;;;;;24.25;18.45;;;15.40;70.00;;;;;;5035755;28;20132;-67
2023/04/21 10:20:56;;;;;;;23.13;17.65;;;15.60;69.90;;;;;;5054025;28;20025;-66
2023/04/21 10:23:41;;;;;;;25.17;19.45;;;15.60;69.40;;;;;;5048506;28;20043;-67
2023/04/21 10:26:28;;;;;;;22.05;17.45;;;15.80;68.90;;;;;;5051984;28;20048;-67
2023/04/21 10:29:05;;;;;;;24.52;17.98;;;15.90;68.70;;;;;;5030185;28;20039;-67
2023/04/21 10:31:53;;;;;;;23.73;17.67;;;16.00;68.40;;;;;;5031769;28;20045;-68
2023/04/21 10:34:21;;;;;;;22.88;17.95;;;16.00;68.30;;;;;;5035309;28;20025;-68
2023/04/21 10:37:10;;;;;;;24.35;18.55;;;16.20;68.10;;;;;;5042595;28;20025;-68
2023/04/21 10:39:44;;;;;;;22.85;18.30;;;16.40;67.60;;;;;;5035160;28;20037;-68
2023/04/21 10:42:16;;;;;;;22.95;17.75;;;16.60;67.20;;;;;;5033380;28;20037;-69
2023/04/21 10:44:43;;;;;;;22.98;17.85;;;16.80;66.80;;;;;;5030673;28;20037;-69
2023/04/21 10:47:09;;;;;;;23.00;18.45;;;16.90;66.40;;;;;;5033428;28;20040;-68
2023/04/21 10:49:40;;;;;;;23.20;17.73;;;17.00;66.10;;;;;;5034223;28;20033;-69
2023/04/21 10:52:08;;;;;;;23.63;19.00;;;17.00;66.00;;;;;;5031441;28;20029;-69
2023/04/21 10:54:41;;;;;;;23.45;18.48;;;16.90;66.10;;;;;;5016864;28;20100;-68
2023/04/21 10:57:10;;;;;;;22.17;17.30;;;16.80;66.10;;;;;;5031842;28;20494;-69
2023/04/21 10:59:36;;;;;;;22.55;17.40;;;16.60;66.30;;;;;;5031187;28;20129;-69
2023/04/21 11:02:07;;;;;;;21.98;17.45;;;16.60;66.50;;;;;;5033196;28;20039;-69
2023/04/21 11:04:33;;;;;;;21.38;17.25;;;16.60;66.50;;;;;;5031967;28;20025;-70
2023/04/21 11:07:09;;;;;;;22.25;17.95;;;16.50;66.50;;;;;;5032767;28;20347;-68
2023/04/21 11:09:36;;;;;;;22.85;18.13;;;16.40;66.50;;;;;;5037080;28;20053;-68
2023/04/21 11:12:10;;;;;;;21.42;17.23;;;16.30;66.70;;;;;;5053406;28;20368;-67
2023/04/21 11:14:38;;;;;;;23.27;17.55;;;16.20;66.90;;;;;;5035012;28;20072;-68
2023/04/21 11:17:09;;;;;;;23.63;16.73;;;16.00;67.00;;;;;;5047943;28;20036;-68
2023/04/21 11:19:35;;;;;;;22.98;18.15;;;16.00;67.20;;;;;;5032144;28;20045;-69
2023/04/21 11:22:03;;;;;;;23.65;17.90;;;15.90;67.20;;;;;;5029507;28;20363;-68
2023/04/21 11:24:29;;;;;;;23.35;18.05;;;16.00;67.10;;;;;;5032177;28;20100;-69
2023/04/21 11:26:55;;;;;;;20.55;16.80;;;16.10;67.10;;;;;;5045181;28;20036;-69
2023/04/21 11:29:21;;;;;;;22.73;16.98;;;16.20;66.90;;;;;;5041713;28;20350;-68
2023/04/21 11:31:49;;;;;;;23.25;17.92;;;16.30;66.50;;;;;;5038767;28;20029;-70
2023/04/21 11:34:15;;;;;;;22.77;17.05;;;16.40;66.30;;;;;;5037956;28;20071;-70
2023/04/21 11:36:43;;;;;;;20.73;16.30;;;16.60;66.00;;;;;;5033620;28;20026;-70
2023/04/21 11:39:11;;;;;;;24.20;17.48;;;16.80;65.60;;;;;;5033605;28;20479;-71
2023/04/21 11:41:42;;;;;;;26.83;17.15;;;16.90;65.30;;;;;;5052973;28;20025;-67
2023/04/21 11:44:11;;;;;;;24.02;17.95;;;16.80;65.10;;;;;;5038479;28;20067;-68
2023/04/21 11:46:45;;;;;;;24.25;17.23;;;16.80;64.90;;;;;;5032576;28;20021;-68
2023/04/21 11:49:11;;;;;;;25.52;17.67;;;16.90;65.00;;;;;;5028943;28;20076;-69
2023/04/21 11:51:40;;;;;;;26.17;18.52;;;16.90;64.90;;;;;;5027844;28;20022;-73
2023/04/21 11:54:08;;;;;;;24.80;17.63;;;16.80;64.90;;;;;;5033700;28;20370;-72
2023/04/21 11:56:36;;;;;;;24.50;18.08;;;16.80;65.00;;;;;;5030732;28;20030;-71
2023/04/21 11:59:07;;;;;;;23.95;17.58;;;16.80;64.90;;;;;;5012900;28;20030;-71
2023/04/21 12:01:41;;;;;;;30.13;20.35;;;16.80;64.90;;;;;;5025266;28;20476;-72
2023/04/21 12:04:16;;;;;;;22.98;16.20;;;16.80;64.70;;;;;;5029027;28;20064;-72
2023/04/21 12:06:43;;;;;;;25.20;17.92;;;16.70;64.80;;;;;;5029714;28;20037;-72
2023/04/21 12:09:19;;;;;;;24.25;17.25;;;16.70;64.90;;;;;;5031207;28;20110;-71
2023/04/21 12:11:49;;;;;;;24.60;17.80;;;16.80;64.70;;;;;;5030530;28;20022;-72
2023/04/21 12:14:20;;;;;;;23.00;17.05;;;16.80;64.70;;;;;;5038122;28;20044;-71
2023/04/21 12:16:56;;;;;;;;;;;16.90;64.70;;;;;;5042326;28;20075;-71
2023/04/21 12:19:48;;;;;;;22.02;15.52;;;16.90;64.60;;;;;;5052452;28;19913;-72
2023/04/21 12:22:17;;;;;;;21.70;15.93;;;16.80;64.50;;;;;;5034510;28;20071;-72
2023/04/21 12:24:44;;;;;;;24.60;18.55;;;16.70;64.70;;;;;;5033886;28;20029;-71
2023/04/21 12:27:10;;;;;;;23.58;17.33;;;16.60;64.80;;;;;;5034234;28;20450;-71
2023/04/21 12:29:37;;;;;;;22.90;17.38;;;16.50;64.90;;;;;;5039634;28;20051;-71